createdAt,value
2022-11-18T00:01:34.076Z,6.40
2022-11-18T00:06:33.519Z,6.70
2022-11-18T00:11:49.311Z,6.40
2022-11-18T00:16:48.331Z,6.40
2022-11-18T00:21:47.825Z,6.60
2022-11-18T00:26:46.041Z,6.50
2022-11-18T00:31:45.191Z,6.50
2022-11-18T00:36:43.865Z,6.40
2022-11-18T00:42:01.219Z,6.50
2022-11-18T00:46:59.419Z,6.30
2022-11-18T00:51:57.682Z,6.40
2022-11-18T00:56:57.188Z,6.30
2022-11-18T01:01:55.399Z,6.30
2022-11-18T01:06:53.677Z,6.20
2022-11-18T01:12:09.278Z,6.70
2022-11-18T01:17:08.847Z,6.70
2022-11-18T01:22:07.028Z,6.40
2022-11-18T01:27:05.676Z,6.30
2022-11-18T01:37:23.301Z,6.30
2022-11-18T01:42:21.417Z,6.30
2022-11-18T01:47:20.112Z,6.30
2022-11-18T01:52:18.355Z,6.30
2022-11-18T01:57:22.968Z,6.30
2022-11-18T02:02:22.475Z,6.20
2022-11-18T02:07:21.705Z,6.20
2022-11-18T02:12:21.577Z,6.20
2022-11-18T02:17:30.190Z,6.10
2022-11-18T02:23:04.865Z,6.00
2022-11-18T02:28:37.148Z,6.20
2022-11-18T02:33:44.135Z,6.30
2022-11-18T02:38:46.388Z,6.00
2022-11-18T02:44:16.245Z,5.90
2022-11-18T02:49:21.021Z,5.80
2022-11-18T02:54:21.482Z,5.90
2022-11-18T02:59:20.229Z,5.80
2022-11-18T03:04:20.639Z,5.70
2022-11-18T03:09:25.825Z,5.90
2022-11-18T03:14:33.704Z,6.00
2022-11-18T03:19:49.342Z,6.00
2022-11-18T03:24:56.447Z,6.00
2022-11-18T03:29:59.613Z,5.80
2022-11-18T03:35:03.118Z,6.20
2022-11-18T03:40:05.172Z,6.10
2022-11-18T03:45:07.446Z,6.00
2022-11-18T03:50:13.633Z,6.00
2022-11-18T03:55:16.175Z,6.10
2022-11-18T04:00:16.434Z,6.10
2022-11-18T04:05:18.217Z,6.00
2022-11-18T04:10:18.725Z,6.20
2022-11-18T04:15:17.576Z,6.00
2022-11-18T04:20:20.494Z,6.00
2022-11-18T04:25:18.720Z,6.00
2022-11-18T04:30:17.037Z,5.80
2022-11-18T04:35:15.639Z,5.80
2022-11-18T04:40:15.274Z,5.90
2022-11-18T04:45:13.714Z,6.00
2022-11-18T04:50:11.896Z,6.00
2022-11-18T04:55:10.298Z,5.90
2022-11-18T05:00:11.006Z,5.70
2022-11-18T05:05:09.515Z,5.80
2022-11-18T05:10:08.371Z,5.80
2022-11-18T05:15:07.430Z,5.90
2022-11-18T05:20:08.178Z,5.80
2022-11-18T05:25:07.112Z,5.70
2022-11-18T05:30:06.282Z,5.70
2022-11-18T05:35:06.197Z,5.60
2022-11-18T05:40:04.743Z,5.60
2022-11-18T05:45:02.935Z,5.70
2022-11-18T05:50:01.070Z,5.80
2022-11-18T05:55:00.527Z,5.70
2022-11-18T05:59:58.707Z,5.80
2022-11-18T06:05:00.223Z,5.70
2022-11-18T06:10:05.778Z,5.60
2022-11-18T06:15:10.111Z,5.60
2022-11-18T06:20:09.651Z,5.70
2022-11-18T06:25:09.626Z,5.70
2022-11-18T06:30:09.166Z,5.60
2022-11-18T06:35:08.467Z,5.30
2022-11-18T06:40:09.557Z,5.20
2022-11-18T06:45:08.486Z,5.20
2022-11-18T06:50:07.638Z,5.40
2022-11-18T06:55:08.351Z,5.50
2022-11-18T07:00:09.623Z,5.40
2022-11-18T07:05:08.144Z,5.40
2022-11-18T07:10:07.329Z,5.40
2022-11-18T07:15:07.769Z,5.30
2022-11-18T07:20:06.538Z,5.20
2022-11-18T07:25:04.877Z,5.00
2022-11-18T07:31:03.712Z,4.90
2022-11-18T07:36:04.293Z,4.90
2022-11-18T07:41:06.686Z,5.00
2022-11-18T07:46:16.714Z,5.00
2022-11-18T07:51:18.051Z,5.00
2022-11-18T07:56:17.182Z,5.00
2022-11-18T08:01:17.285Z,5.20
2022-11-18T08:06:18.604Z,5.50
2022-11-18T08:11:22.270Z,5.60
2022-11-18T08:16:22.613Z,5.20
2022-11-18T08:21:23.420Z,5.20
2022-11-18T08:26:21.986Z,5.20
2022-11-18T08:31:22.119Z,5.30
2022-11-18T08:36:23.922Z,5.30
2022-11-18T08:41:29.627Z,5.20
2022-11-18T08:46:27.844Z,5.20
2022-11-18T08:51:28.537Z,5.40
2022-11-18T08:56:27.057Z,5.20
2022-11-18T09:01:25.425Z,5.20
2022-11-18T09:06:25.052Z,5.10
2022-11-18T09:11:26.591Z,5.20
2022-11-18T09:16:27.890Z,5.20
2022-11-18T09:21:27.494Z,5.10
2022-11-18T09:26:27.002Z,5.10
2022-11-18T09:31:25.453Z,5.20
2022-11-18T09:36:25.018Z,5.30
2022-11-18T09:41:45.080Z,5.40
2022-11-18T09:46:57.553Z,5.30
2022-11-18T09:51:56.436Z,5.40
2022-11-18T09:56:57.456Z,5.40
2022-11-18T10:02:04.222Z,4.90
2022-11-18T10:07:12.302Z,5.00
2022-11-18T10:12:23.948Z,5.40
2022-11-18T10:17:38.244Z,5.30
2022-11-18T10:22:43.186Z,5.30
2022-11-18T10:27:44.776Z,5.50
2022-11-18T10:33:04.721Z,5.30
2022-11-18T10:38:08.652Z,5.80
2022-11-18T10:43:11.412Z,5.70
2022-11-18T10:48:17.446Z,5.80
2022-11-18T10:53:32.241Z,5.50
2022-11-18T10:58:33.241Z,5.40
2022-11-18T11:03:36.157Z,5.30
2022-11-18T11:08:37.373Z,5.00
2022-11-18T11:13:44.352Z,5.00
2022-11-18T11:18:42.752Z,5.10
2022-11-18T11:23:41.508Z,5.30
2022-11-18T11:28:46.021Z,5.50
2022-11-18T11:33:52.000Z,5.40
2022-11-18T11:39:04.284Z,5.30
2022-11-18T11:44:28.633Z,5.40
2022-11-18T11:49:34.964Z,5.40
2022-11-18T11:54:43.578Z,5.70
2022-11-18T11:59:47.767Z,5.50
2022-11-18T12:04:50.819Z,5.40
2022-11-18T12:10:06.212Z,5.00
2022-11-18T12:15:18.556Z,5.00
2022-11-18T12:20:43.659Z,5.20
2022-11-18T12:25:53.280Z,5.50
2022-11-18T12:31:15.351Z,5.60
2022-11-18T12:36:26.944Z,5.60
2022-11-18T12:42:11.182Z,6.00
2022-11-18T12:47:11.363Z,5.50
2022-11-18T12:52:51.091Z,5.40
2022-11-18T12:57:49.239Z,5.40
2022-11-18T13:02:53.163Z,5.60
2022-11-18T13:08:13.396Z,5.30
2022-11-18T13:13:22.578Z,5.50
2022-11-18T13:18:21.652Z,5.50
2022-11-18T13:23:47.006Z,5.40
2022-11-18T13:28:54.047Z,5.40
2022-11-18T13:33:53.764Z,5.60
2022-11-18T13:39:00.757Z,5.40
2022-11-18T13:44:10.605Z,5.40
2022-11-18T13:49:18.480Z,5.60
2022-11-18T13:54:23.771Z,5.70
2022-11-18T13:59:24.639Z,5.70
2022-11-18T14:04:24.832Z,5.80
2022-11-18T14:09:27.198Z,6.10
2022-11-18T14:14:30.999Z,6.30
2022-11-18T14:19:31.951Z,6.10
2022-11-18T14:24:31.457Z,6.00
2022-11-18T14:29:29.589Z,5.90
2022-11-18T14:34:30.015Z,5.90
2022-11-18T14:39:30.838Z,5.90
2022-11-18T14:44:30.643Z,6.00
2022-11-18T14:49:31.614Z,6.10
2022-11-18T14:54:30.247Z,6.00
2022-11-18T14:59:30.180Z,6.00
2022-11-18T15:04:28.458Z,6.00
2022-11-18T15:09:26.587Z,6.10
2022-11-18T15:14:24.933Z,6.00
2022-11-18T15:19:24.508Z,5.90
2022-11-18T15:24:22.695Z,5.90
2022-11-18T15:29:23.264Z,6.00
2022-11-18T15:34:22.026Z,5.90
2022-11-18T15:39:21.644Z,5.90
2022-11-18T15:44:20.006Z,6.10
2022-11-18T15:49:18.619Z,5.90
2022-11-18T15:54:16.994Z,5.90
2022-11-18T15:59:17.841Z,5.90
2022-11-18T16:04:17.826Z,5.90
2022-11-18T16:09:17.484Z,5.90
2022-11-18T16:14:19.546Z,5.80
2022-11-18T16:19:20.104Z,5.70
2022-11-18T16:24:20.500Z,5.60
2022-11-18T16:29:21.310Z,5.50
2022-11-18T16:34:21.280Z,5.40
2022-11-18T16:39:23.449Z,5.40
2022-11-18T16:44:23.306Z,5.50
2022-11-18T16:49:23.283Z,5.10
2022-11-18T16:54:23.851Z,5.00
2022-11-18T16:59:24.911Z,5.00
2022-11-18T17:04:24.449Z,5.00
2022-11-18T17:09:24.247Z,4.90
2022-11-18T17:14:24.477Z,4.90
2022-11-18T17:19:24.842Z,4.80
2022-11-18T17:24:24.434Z,4.80
2022-11-18T17:29:23.916Z,4.80
2022-11-18T17:34:22.427Z,4.70
2022-11-18T17:39:20.932Z,4.80
2022-11-18T17:44:19.610Z,4.80
2022-11-18T17:49:21.258Z,4.80
2022-11-18T17:54:20.076Z,4.70
2022-11-18T17:59:18.800Z,4.70
2022-11-18T18:04:20.454Z,4.70
2022-11-18T18:16:13.057Z,4.60
2022-11-18T18:21:13.226Z,4.60
2022-11-18T18:26:12.290Z,4.50
2022-11-18T18:31:13.104Z,4.50
2022-11-18T18:36:14.649Z,4.50
2022-11-18T18:41:18.123Z,4.50
2022-11-18T18:46:30.512Z,4.50
2022-11-18T18:51:33.186Z,4.40
2022-11-18T18:56:31.498Z,4.50
2022-11-18T19:01:29.793Z,4.20
2022-11-18T19:12:07.152Z,4.30
2022-11-18T19:22:24.972Z,4.30
2022-11-18T19:27:23.243Z,4.30
2022-11-18T19:32:21.374Z,4.40
2022-11-18T19:38:10.562Z,4.20
2022-11-18T19:43:10.076Z,4.20
2022-11-18T19:54:58.019Z,4.10
2022-11-18T19:59:57.598Z,4.10
2022-11-18T20:05:12.961Z,4.10
2022-11-18T20:10:11.794Z,4.00
2022-11-18T20:15:12.250Z,4.00
2022-11-18T20:20:11.430Z,4.00
2022-11-18T20:25:10.390Z,4.00
2022-11-18T20:30:09.675Z,3.90
2022-11-18T20:35:10.052Z,3.90
2022-11-18T20:40:09.310Z,3.90
2022-11-18T20:45:08.413Z,3.80
2022-11-18T20:50:08.833Z,3.80
2022-11-18T20:55:07.512Z,3.80
2022-11-18T21:00:06.996Z,3.80
2022-11-18T21:05:05.488Z,3.70
2022-11-18T21:10:05.770Z,3.70
2022-11-18T21:15:03.974Z,3.70
2022-11-18T21:20:22.128Z,3.60
2022-11-18T21:26:19.875Z,3.60
2022-11-18T21:31:23.067Z,3.60
2022-11-18T21:36:23.127Z,3.50
2022-11-18T21:41:21.311Z,3.50
2022-11-18T21:46:21.471Z,3.40
2022-11-18T21:51:21.621Z,3.40
2022-11-18T21:56:21.948Z,3.30
2022-11-18T22:01:23.495Z,3.40
2022-11-18T22:06:22.496Z,3.30
2022-11-18T22:11:22.442Z,3.50
2022-11-18T22:16:23.460Z,3.30
2022-11-18T22:28:17.379Z,3.30
2022-11-18T22:33:16.881Z,3.20
2022-11-18T22:38:14.998Z,3.40
2022-11-18T22:43:13.090Z,3.20
2022-11-18T22:48:11.194Z,3.10
2022-11-18T22:53:10.662Z,3.10
2022-11-18T22:58:08.774Z,3.10
2022-11-18T23:03:06.882Z,3.00
2022-11-18T23:08:05.141Z,3.00
2022-11-18T23:13:22.220Z,3.00
2022-11-18T23:18:20.337Z,3.00
2022-11-18T23:23:18.772Z,3.20
2022-11-18T23:28:18.536Z,3.10
2022-11-18T23:33:16.697Z,3.10
2022-11-18T23:38:15.932Z,3.00
2022-11-18T23:43:14.209Z,2.90
2022-11-18T23:48:13.693Z,2.80
2022-11-18T23:53:11.815Z,2.70
2022-11-18T23:58:09.939Z,2.90
